createdAt,value
2019-05-19T00:02:16.816Z,15.98
2019-05-19T00:04:46.933Z,16.00
2019-05-19T00:07:17.962Z,16.06
2019-05-19T00:09:48.013Z,16.15
2019-05-19T00:12:18.206Z,16.15
2019-05-19T00:14:48.253Z,16.19
2019-05-19T00:17:18.330Z,16.22
2019-05-19T00:19:48.402Z,16.28
2019-05-19T00:22:18.441Z,16.45
2019-05-19T00:24:48.591Z,16.45
2019-05-19T00:27:18.712Z,16.57
2019-05-19T00:29:48.857Z,16.67
2019-05-19T00:32:18.888Z,16.74
2019-05-19T00:34:48.935Z,16.79
2019-05-19T00:37:19.072Z,16.86
2019-05-19T00:39:49.133Z,16.92
2019-05-19T00:42:19.184Z,16.98
2019-05-19T00:44:49.229Z,17.01
2019-05-19T00:47:19.298Z,17.05
2019-05-19T00:49:49.341Z,17.11
2019-05-19T00:52:19.405Z,17.18
2019-05-19T00:54:49.452Z,17.22
2019-05-19T00:57:19.517Z,17.29
2019-05-19T00:59:49.553Z,17.34
2019-05-19T01:02:19.688Z,17.37
2019-05-19T01:04:50.706Z,17.41
2019-05-19T01:07:20.755Z,17.44
2019-05-19T01:09:50.837Z,17.45
2019-05-19T01:12:21.841Z,17.48
2019-05-19T01:14:51.885Z,17.49
2019-05-19T01:17:21.941Z,17.51
2019-05-19T01:19:56.094Z,17.50
2019-05-19T01:22:23.771Z,17.52
2019-05-19T01:24:56.090Z,17.49
2019-05-19T01:27:26.213Z,17.45
2019-05-19T01:29:56.242Z,17.42
2019-05-19T01:32:26.310Z,17.37
2019-05-19T01:34:57.426Z,17.29
2019-05-19T01:37:27.506Z,17.18
2019-05-19T01:39:57.519Z,17.13
2019-05-19T01:42:27.565Z,17.02
2019-05-19T01:44:57.600Z,16.96
2019-05-19T01:47:27.776Z,16.86
2019-05-19T01:50:16.491Z,16.74
2019-05-19T01:52:29.570Z,16.68
2019-05-19T01:55:02.772Z,16.63
2019-05-19T01:57:32.833Z,16.60
2019-05-19T02:00:03.430Z,16.53
2019-05-19T02:02:34.723Z,16.53
2019-05-19T02:05:04.876Z,16.54
2019-05-19T02:07:34.942Z,16.53
2019-05-19T02:10:05.669Z,16.55
2019-05-19T02:12:35.725Z,16.57
2019-05-19T02:15:05.911Z,16.61
2019-05-19T02:17:36.036Z,16.60
2019-05-19T02:20:06.325Z,16.63
2019-05-19T02:22:36.414Z,16.64
2019-05-19T02:25:06.549Z,16.61
2019-05-19T02:27:36.623Z,16.60
2019-05-19T02:30:06.760Z,16.57
2019-05-19T02:32:36.817Z,16.58
2019-05-19T02:35:06.877Z,16.61
2019-05-19T02:37:36.945Z,16.67
2019-05-19T02:40:07.012Z,16.75
2019-05-19T02:42:38.622Z,16.81
2019-05-19T02:45:08.693Z,16.76
2019-05-19T02:47:38.750Z,16.71
2019-05-19T02:50:08.811Z,16.72
2019-05-19T02:52:39.086Z,16.72
2019-05-19T02:55:09.418Z,16.66
2019-05-19T02:57:39.478Z,16.67
2019-05-19T03:00:09.807Z,16.63
2019-05-19T03:02:39.864Z,16.61
2019-05-19T03:05:09.920Z,16.57
2019-05-19T03:07:40.018Z,16.46
2019-05-19T03:10:11.621Z,16.42
2019-05-19T03:12:41.696Z,16.42
2019-05-19T03:15:11.730Z,16.43
2019-05-19T03:17:41.800Z,16.47
2019-05-19T03:20:11.839Z,16.51
2019-05-19T03:22:42.861Z,16.58
2019-05-19T03:25:13.170Z,16.63
2019-05-19T03:27:43.200Z,16.69
2019-05-19T03:30:39.885Z,16.73
2019-05-19T03:33:10.205Z,16.77
2019-05-19T03:35:40.331Z,16.77
2019-05-19T03:38:10.378Z,16.75
2019-05-19T03:40:40.457Z,16.76
2019-05-19T03:43:10.483Z,16.79
2019-05-19T03:45:40.554Z,16.83
2019-05-19T03:48:10.587Z,16.89
2019-05-19T03:50:40.647Z,16.89
2019-05-19T03:53:10.844Z,16.90
2019-05-19T03:55:40.923Z,16.95
2019-05-19T03:58:10.967Z,16.97
2019-05-19T04:00:41.080Z,17.00
2019-05-19T04:03:11.121Z,17.02
2019-05-19T04:05:41.185Z,17.06
2019-05-19T04:08:11.263Z,17.05
2019-05-19T04:10:41.341Z,17.04
2019-05-19T04:13:11.389Z,17.04
2019-05-19T04:15:41.459Z,17.08
2019-05-19T04:18:11.523Z,17.11
2019-05-19T04:20:41.573Z,17.13
2019-05-19T04:23:11.682Z,17.11
2019-05-19T04:25:41.719Z,17.14
2019-05-19T04:28:11.752Z,17.07
2019-05-19T04:30:41.929Z,17.04
2019-05-19T04:33:11.964Z,17.04
2019-05-19T04:35:42.065Z,17.02
2019-05-19T04:38:14.012Z,17.00
2019-05-19T04:40:44.077Z,17.01
2019-05-19T04:43:14.109Z,17.05
2019-05-19T04:45:44.164Z,17.08
2019-05-19T04:48:14.215Z,17.07
2019-05-19T04:50:44.274Z,17.11
2019-05-19T04:53:14.322Z,17.10
2019-05-19T04:55:44.380Z,17.12
2019-05-19T04:58:14.440Z,17.15
2019-05-19T05:00:44.477Z,17.16
2019-05-19T05:03:14.526Z,17.18
2019-05-19T05:05:44.566Z,17.19
2019-05-19T05:08:28.611Z,17.19
2019-05-19T05:10:46.348Z,17.17
2019-05-19T05:13:16.429Z,17.18
2019-05-19T05:15:46.471Z,17.19
2019-05-19T05:18:16.522Z,17.17
2019-05-19T05:20:46.587Z,17.11
2019-05-19T05:23:16.619Z,17.06
2019-05-19T05:25:46.735Z,17.07
2019-05-19T05:28:16.794Z,17.07
2019-05-19T05:30:46.840Z,17.09
2019-05-19T05:33:16.883Z,17.12
2019-05-19T05:35:46.925Z,17.08
2019-05-19T05:38:17.149Z,17.09
2019-05-19T05:40:47.576Z,17.08
2019-05-19T05:43:17.625Z,17.04
2019-05-19T05:45:47.664Z,17.01
2019-05-19T05:48:17.718Z,17.00
2019-05-19T05:50:47.763Z,17.01
2019-05-19T05:53:17.819Z,17.05
2019-05-19T05:55:47.864Z,17.11
2019-05-19T05:58:17.922Z,17.10
2019-05-19T06:00:47.982Z,17.13
2019-05-19T06:03:18.007Z,17.09
2019-05-19T06:05:48.077Z,17.06
2019-05-19T06:08:18.121Z,17.04
2019-05-19T06:10:48.203Z,17.07
2019-05-19T06:13:18.243Z,17.10
2019-05-19T06:15:48.322Z,17.05
2019-05-19T06:18:19.332Z,17.02
2019-05-19T06:20:49.389Z,16.99
2019-05-19T06:23:19.417Z,16.95
2019-05-19T06:25:49.497Z,16.98
2019-05-19T06:28:20.717Z,16.97
2019-05-19T06:30:50.794Z,16.88
2019-05-19T06:33:20.817Z,16.88
2019-05-19T06:35:50.992Z,16.87
2019-05-19T06:38:21.800Z,16.84
2019-05-19T06:40:51.864Z,16.81
2019-05-19T06:43:21.904Z,16.83
2019-05-19T06:45:51.979Z,16.87
2019-05-19T06:48:22.042Z,16.88
2019-05-19T06:50:52.104Z,16.86
2019-05-19T06:53:22.141Z,16.83
2019-05-19T06:55:54.925Z,16.88
2019-05-19T06:58:24.978Z,16.93
2019-05-19T07:00:55.024Z,16.95
2019-05-19T07:03:25.084Z,16.95
2019-05-19T07:05:55.134Z,16.94
2019-05-19T07:08:25.202Z,17.00
2019-05-19T07:10:55.245Z,17.07
2019-05-19T07:13:25.303Z,17.10
2019-05-19T07:15:55.348Z,17.17
2019-05-19T07:18:25.385Z,17.24
2019-05-19T07:20:55.460Z,17.31
2019-05-19T07:23:28.295Z,17.35
2019-05-19T07:25:57.273Z,17.43
2019-05-19T07:28:27.305Z,17.48
2019-05-19T07:30:57.361Z,17.53
2019-05-19T07:33:27.469Z,17.52
2019-05-19T07:35:57.531Z,17.53
2019-05-19T07:38:27.605Z,17.47
2019-05-19T07:40:57.671Z,17.47
2019-05-19T07:43:27.804Z,17.46
2019-05-19T07:45:57.850Z,17.47
2019-05-19T07:48:27.913Z,17.52
2019-05-19T07:50:57.943Z,17.63
2019-05-19T07:53:41.927Z,17.63
2019-05-19T07:55:59.725Z,17.66
2019-05-19T07:58:29.809Z,17.63
2019-05-19T08:00:59.859Z,17.65
2019-05-19T08:03:29.978Z,17.69
2019-05-19T08:06:00.018Z,17.73
2019-05-19T08:08:30.078Z,17.80
2019-05-19T08:11:01.102Z,17.89
2019-05-19T08:13:32.119Z,17.99
2019-05-19T08:16:02.182Z,17.99
2019-05-19T08:18:32.256Z,17.95
2019-05-19T08:21:02.305Z,18.03
2019-05-19T08:23:32.360Z,18.10
2019-05-19T08:26:02.390Z,18.13
2019-05-19T08:28:32.503Z,18.16
2019-05-19T08:31:02.572Z,18.11
2019-05-19T08:33:32.675Z,18.12
2019-05-19T08:36:02.719Z,18.10
2019-05-19T08:38:32.854Z,18.06
2019-05-19T08:41:02.927Z,18.09
2019-05-19T08:43:33.025Z,18.13
2019-05-19T08:46:03.056Z,18.20
2019-05-19T08:48:33.113Z,18.16
2019-05-19T08:51:03.171Z,18.22
2019-05-19T08:53:33.240Z,18.23
2019-05-19T08:56:03.282Z,18.16
2019-05-19T08:58:33.330Z,18.13
2019-05-19T09:01:03.373Z,18.07
2019-05-19T09:03:33.446Z,18.02
2019-05-19T09:06:03.490Z,18.10
2019-05-19T09:08:33.554Z,18.19
2019-05-19T09:11:03.605Z,18.20
2019-05-19T09:13:33.680Z,18.24
2019-05-19T09:16:03.938Z,18.32
2019-05-19T09:18:34.007Z,18.31
2019-05-19T09:21:04.043Z,18.34
2019-05-19T09:23:34.092Z,18.39
2019-05-19T09:26:04.128Z,18.49
2019-05-19T09:28:34.193Z,18.57
2019-05-19T09:31:04.266Z,18.63
2019-05-19T09:33:34.300Z,18.75
2019-05-19T09:36:04.377Z,18.80
2019-05-19T09:38:35.442Z,18.92
2019-05-19T09:41:05.767Z,18.93
2019-05-19T09:43:35.836Z,18.97
2019-05-19T09:46:05.988Z,18.93
2019-05-19T09:48:36.016Z,19.00
2019-05-19T09:51:06.092Z,18.95
2019-05-19T09:53:36.163Z,19.01
2019-05-19T09:56:06.204Z,19.04
2019-05-19T09:58:36.269Z,19.14
2019-05-19T10:01:06.288Z,19.20
2019-05-19T10:03:36.399Z,19.26
2019-05-19T10:06:06.450Z,19.32
2019-05-19T10:09:11.121Z,19.32
2019-05-19T10:12:02.417Z,19.43
2019-05-19T10:14:32.466Z,19.55
2019-05-19T10:17:04.144Z,19.63
2019-05-19T10:19:34.199Z,19.69
2019-05-19T10:22:04.275Z,19.81
2019-05-19T10:24:34.367Z,19.91
2019-05-19T10:27:04.449Z,20.00
2019-05-19T10:29:34.506Z,20.00
2019-05-19T10:32:04.579Z,20.01
2019-05-19T10:34:34.617Z,20.10
2019-05-19T10:37:04.826Z,20.20
2019-05-19T10:39:34.913Z,20.38
2019-05-19T10:42:04.981Z,20.33
2019-05-19T10:44:35.054Z,20.45
2019-05-19T10:47:05.111Z,20.76
2019-05-19T10:49:35.157Z,21.11
2019-05-19T10:52:05.270Z,21.15
2019-05-19T10:54:35.353Z,21.38
2019-05-19T10:57:05.398Z,21.48
2019-05-19T10:59:35.456Z,21.46
2019-05-19T11:02:05.497Z,21.33
2019-05-19T11:04:35.619Z,21.34
2019-05-19T11:07:05.727Z,21.33
2019-05-19T11:09:35.780Z,21.40
2019-05-19T11:12:05.824Z,21.54
2019-05-19T11:14:35.947Z,21.64
2019-05-19T11:17:06.011Z,21.79
2019-05-19T11:19:36.061Z,21.94
2019-05-19T11:22:06.134Z,21.92
2019-05-19T11:24:36.188Z,21.91
2019-05-19T11:27:06.280Z,22.01
2019-05-19T11:29:36.314Z,22.07
2019-05-19T11:32:06.369Z,22.06
2019-05-19T11:34:39.604Z,21.94
2019-05-19T11:37:09.637Z,21.93
2019-05-19T11:39:39.737Z,21.84
2019-05-19T11:42:09.777Z,22.00
2019-05-19T11:44:40.806Z,22.28
2019-05-19T11:47:12.621Z,22.45
2019-05-19T11:49:42.678Z,22.48
2019-05-19T11:52:12.713Z,22.64
2019-05-19T11:54:42.780Z,22.83
2019-05-19T11:57:12.829Z,22.96
2019-05-19T11:59:43.041Z,23.12
2019-05-19T12:02:13.079Z,23.16
2019-05-19T12:04:43.136Z,23.28
2019-05-19T12:07:13.189Z,23.33
2019-05-19T12:09:43.253Z,23.39
2019-05-19T12:12:13.280Z,23.45
2019-05-19T12:14:43.381Z,23.58
2019-05-19T12:17:13.455Z,23.61
2019-05-19T12:19:43.484Z,23.63
2019-05-19T12:22:13.626Z,23.70
2019-05-19T12:24:43.656Z,23.72
2019-05-19T12:27:13.765Z,23.82
2019-05-19T12:29:43.772Z,23.85
2019-05-19T12:32:13.829Z,23.94
2019-05-19T12:34:43.868Z,23.99
2019-05-19T12:37:13.949Z,24.08
2019-05-19T12:39:44.021Z,23.99
2019-05-19T12:42:14.087Z,24.01
2019-05-19T12:44:44.153Z,23.73
2019-05-19T12:47:14.196Z,23.80
2019-05-19T12:49:44.254Z,23.92
2019-05-19T12:52:15.362Z,24.08
2019-05-19T12:54:46.473Z,24.03
2019-05-19T12:57:16.575Z,23.80
2019-05-19T12:59:47.675Z,23.76
2019-05-19T13:02:17.732Z,23.71
2019-05-19T13:05:04.452Z,23.51
2019-05-19T13:07:21.147Z,23.46
2019-05-19T13:09:51.286Z,23.56
2019-05-19T13:12:21.344Z,23.77
2019-05-19T13:14:51.398Z,23.77
2019-05-19T13:17:21.449Z,23.83
2019-05-19T13:19:52.539Z,23.80
2019-05-19T13:22:22.542Z,23.77
2019-05-19T13:24:52.620Z,23.80
2019-05-19T13:27:22.649Z,23.88
2019-05-19T13:29:52.702Z,23.89
2019-05-19T13:32:22.768Z,23.71
2019-05-19T13:34:52.805Z,23.47
2019-05-19T13:37:22.856Z,23.37
2019-05-19T13:39:53.011Z,23.14
2019-05-19T13:42:23.086Z,22.90
2019-05-19T13:44:53.130Z,22.98
2019-05-19T13:47:23.219Z,23.14
2019-05-19T13:49:53.241Z,23.27
2019-05-19T13:52:23.306Z,23.40
2019-05-19T13:54:53.342Z,23.51
2019-05-19T13:57:23.401Z,23.60
2019-05-19T13:59:53.456Z,23.65
2019-05-19T14:02:23.519Z,23.68
2019-05-19T14:04:53.583Z,23.70
2019-05-19T14:07:23.633Z,23.55
2019-05-19T14:09:53.680Z,23.38
2019-05-19T14:12:23.736Z,23.14
2019-05-19T14:14:53.801Z,23.00
2019-05-19T14:17:23.843Z,22.81
2019-05-19T14:19:53.892Z,22.52
2019-05-19T14:22:23.962Z,22.25
2019-05-19T14:24:53.999Z,22.12
2019-05-19T14:27:30.066Z,22.08
2019-05-19T14:29:56.766Z,22.06
2019-05-19T14:32:26.840Z,22.05
2019-05-19T14:34:56.953Z,21.86
2019-05-19T14:37:27.004Z,21.63
2019-05-19T14:39:57.110Z,21.55
2019-05-19T14:42:49.475Z,21.57
2019-05-19T14:45:19.587Z,21.69
2019-05-19T14:47:49.578Z,21.70
2019-05-19T14:50:19.650Z,21.81
2019-05-19T14:52:49.718Z,21.95
2019-05-19T14:55:19.770Z,21.73
2019-05-19T14:57:49.823Z,21.74
2019-05-19T15:00:20.630Z,21.89
2019-05-19T15:02:50.697Z,21.79
2019-05-19T15:05:20.748Z,21.78
2019-05-19T15:07:51.906Z,21.76
2019-05-19T15:10:22.135Z,21.83
2019-05-19T15:12:52.196Z,21.91
2019-05-19T15:15:22.250Z,22.00
2019-05-19T15:17:53.914Z,22.16
2019-05-19T15:20:24.046Z,22.23
2019-05-19T15:22:54.082Z,22.14
2019-05-19T15:25:24.154Z,21.94
2019-05-19T15:28:00.617Z,21.78
2019-05-19T15:30:25.993Z,21.57
2019-05-19T15:32:56.053Z,21.45
2019-05-19T15:35:26.100Z,21.30
2019-05-19T15:37:56.307Z,21.40
2019-05-19T15:40:26.352Z,21.45
2019-05-19T15:42:56.483Z,21.41
2019-05-19T15:45:26.525Z,21.34
2019-05-19T15:47:56.613Z,21.30
2019-05-19T15:50:26.687Z,21.38
2019-05-19T15:52:56.884Z,21.42
2019-05-19T15:55:26.942Z,21.56
2019-05-19T15:57:56.992Z,21.69
2019-05-19T16:00:27.064Z,21.82
2019-05-19T16:02:57.181Z,21.91
2019-05-19T16:05:27.264Z,21.99
2019-05-19T16:07:57.425Z,22.06
2019-05-19T16:10:27.501Z,22.21
2019-05-19T16:12:57.560Z,22.33
2019-05-19T16:15:27.604Z,22.29
2019-05-19T16:17:57.658Z,22.26
2019-05-19T16:20:27.714Z,22.21
2019-05-19T16:22:57.776Z,22.16
2019-05-19T16:25:27.804Z,22.02
2019-05-19T16:27:57.937Z,21.93
2019-05-19T16:30:27.983Z,21.81
2019-05-19T16:32:58.060Z,21.62
2019-05-19T16:35:28.117Z,21.55
2019-05-19T16:37:58.262Z,21.54
2019-05-19T16:40:28.300Z,21.45
2019-05-19T16:43:02.114Z,21.33
2019-05-19T16:45:30.080Z,21.26
2019-05-19T16:48:00.121Z,21.14
2019-05-19T16:50:30.202Z,21.12
2019-05-19T16:53:00.412Z,21.07
2019-05-19T16:55:32.595Z,20.98
2019-05-19T16:58:02.695Z,20.96
2019-05-19T17:00:32.822Z,21.03
2019-05-19T17:03:02.908Z,21.15
2019-05-19T17:05:33.034Z,21.24
2019-05-19T17:08:03.157Z,21.32
2019-05-19T17:10:33.281Z,21.39
2019-05-19T17:13:03.353Z,21.37
2019-05-19T17:15:33.471Z,21.26
2019-05-19T17:18:03.650Z,21.27
2019-05-19T17:20:34.750Z,21.25
2019-05-19T17:23:07.628Z,21.32
2019-05-19T17:25:37.660Z,21.24
2019-05-19T17:28:07.801Z,21.31
2019-05-19T17:30:38.834Z,21.22
2019-05-19T17:33:08.901Z,21.07
2019-05-19T17:35:39.000Z,20.98
2019-05-19T17:38:09.102Z,20.94
2019-05-19T17:40:39.141Z,20.80
2019-05-19T17:43:09.187Z,20.59
2019-05-19T17:45:41.058Z,20.41
2019-05-19T17:48:25.420Z,20.34
2019-05-19T17:50:45.126Z,20.36
2019-05-19T17:53:15.199Z,20.36
2019-05-19T17:55:45.318Z,20.31
2019-05-19T17:58:15.368Z,20.33
2019-05-19T18:00:45.431Z,20.22
2019-05-19T18:03:15.465Z,20.13
2019-05-19T18:05:45.544Z,20.10
2019-05-19T18:08:15.592Z,20.20
2019-05-19T18:10:45.652Z,20.20
2019-05-19T18:13:15.786Z,20.20
2019-05-19T18:15:45.841Z,20.12
2019-05-19T18:18:15.897Z,20.08
2019-05-19T18:20:47.192Z,20.03
2019-05-19T18:23:18.250Z,19.96
2019-05-19T18:25:48.465Z,19.93
2019-05-19T18:28:18.486Z,19.88
2019-05-19T18:30:48.561Z,19.76
2019-05-19T18:33:18.607Z,19.71
2019-05-19T18:35:48.641Z,19.60
2019-05-19T18:38:18.695Z,19.47
2019-05-19T18:40:48.724Z,19.42
2019-05-19T18:43:18.795Z,19.40
2019-05-19T18:45:48.851Z,19.42
2019-05-19T18:48:18.921Z,19.45
2019-05-19T18:50:49.020Z,19.47
2019-05-19T18:53:19.069Z,19.51
2019-05-19T18:55:49.151Z,19.52
2019-05-19T18:58:19.202Z,19.42
2019-05-19T19:00:49.246Z,19.31
2019-05-19T19:03:19.312Z,19.20
2019-05-19T19:05:49.354Z,19.14
2019-05-19T19:08:19.405Z,19.16
2019-05-19T19:10:49.468Z,19.20
2019-05-19T19:13:19.521Z,19.23
2019-05-19T19:15:49.608Z,19.19
2019-05-19T19:18:19.644Z,19.11
2019-05-19T19:20:49.696Z,19.04
2019-05-19T19:23:19.837Z,19.08
2019-05-19T19:25:49.885Z,19.14
2019-05-19T19:28:20.022Z,19.20
2019-05-19T19:30:50.087Z,19.24
2019-05-19T19:33:20.145Z,19.22
2019-05-19T19:35:50.266Z,19.14
2019-05-19T19:38:20.399Z,19.05
2019-05-19T19:40:50.442Z,18.98
2019-05-19T19:43:20.493Z,18.98
2019-05-19T19:45:50.602Z,19.01
2019-05-19T19:48:20.648Z,19.02
2019-05-19T19:50:50.797Z,18.99
2019-05-19T19:53:20.851Z,18.93
2019-05-19T19:55:50.977Z,18.93
2019-05-19T19:58:21.416Z,18.96
2019-05-19T20:00:51.518Z,18.97
2019-05-19T20:03:21.659Z,18.97
2019-05-19T20:05:53.431Z,18.90
2019-05-19T20:08:23.497Z,18.86
2019-05-19T20:10:53.542Z,18.76
2019-05-19T20:13:23.600Z,18.70
2019-05-19T20:15:53.659Z,18.68
2019-05-19T20:18:23.707Z,18.66
2019-05-19T20:20:53.753Z,18.65
2019-05-19T20:23:23.809Z,18.62
2019-05-19T20:25:53.851Z,18.62
2019-05-19T20:28:23.917Z,18.61
2019-05-19T20:30:54.016Z,18.61
2019-05-19T20:33:24.094Z,18.60
2019-05-19T20:35:54.158Z,18.55
2019-05-19T20:38:24.233Z,18.46
2019-05-19T20:40:55.266Z,18.39
2019-05-19T20:43:25.309Z,18.27
2019-05-19T20:45:55.370Z,18.22
2019-05-19T20:48:25.442Z,18.14
2019-05-19T20:50:55.564Z,18.05
2019-05-19T20:53:25.632Z,17.94
2019-05-19T20:55:55.741Z,17.79
2019-05-19T20:58:25.792Z,17.71
2019-05-19T21:00:55.974Z,17.61
2019-05-19T21:03:26.023Z,17.49
2019-05-19T21:05:56.099Z,17.44
2019-05-19T21:08:26.145Z,17.39
2019-05-19T21:10:56.190Z,17.33
2019-05-19T21:13:26.263Z,17.26
2019-05-19T21:15:56.327Z,17.20
2019-05-19T21:18:26.380Z,17.13
2019-05-19T21:20:56.431Z,17.09
2019-05-19T21:23:26.481Z,17.06
2019-05-19T21:25:56.550Z,17.03
2019-05-19T21:28:26.624Z,16.99
2019-05-19T21:31:05.246Z,16.94
2019-05-19T21:33:28.465Z,16.87
2019-05-19T21:35:58.510Z,16.82
2019-05-19T21:38:28.556Z,16.77
2019-05-19T21:40:58.616Z,16.77
2019-05-19T21:43:28.665Z,16.74
2019-05-19T21:45:58.709Z,16.74
2019-05-19T21:48:35.277Z,16.76
2019-05-19T21:51:05.312Z,16.79
2019-05-19T21:53:35.401Z,16.86
2019-05-19T21:56:05.434Z,16.92
2019-05-19T21:58:37.801Z,16.98
2019-05-19T22:01:22.181Z,17.03
2019-05-19T22:03:39.804Z,17.05
2019-05-19T22:06:09.810Z,17.04
2019-05-19T22:08:40.869Z,17.06
2019-05-19T22:11:10.908Z,17.07
2019-05-19T22:13:40.974Z,17.09
2019-05-19T22:16:13.226Z,17.09
2019-05-19T22:18:42.782Z,17.11
2019-05-19T22:21:12.836Z,17.14
2019-05-19T22:23:42.869Z,17.19
2019-05-19T22:26:12.930Z,17.13
2019-05-19T22:28:43.014Z,17.04
2019-05-19T22:31:15.353Z,17.02
2019-05-19T22:33:45.409Z,16.99
2019-05-19T22:36:15.453Z,16.91
2019-05-19T22:38:45.504Z,16.93
2019-05-19T22:41:15.574Z,16.92
2019-05-19T22:43:45.617Z,16.91
2019-05-19T22:46:15.678Z,16.94
2019-05-19T22:48:45.756Z,16.98
2019-05-19T22:51:15.791Z,17.03
2019-05-19T22:53:45.881Z,17.06
2019-05-19T22:56:15.928Z,17.10
2019-05-19T22:58:45.999Z,17.10
2019-05-19T23:01:16.108Z,17.03
2019-05-19T23:03:46.349Z,17.02
2019-05-19T23:06:16.388Z,16.96
2019-05-19T23:08:46.536Z,16.93
2019-05-19T23:11:16.582Z,16.95
2019-05-19T23:13:46.644Z,16.98
2019-05-19T23:16:16.726Z,17.02
2019-05-19T23:18:46.775Z,17.03
2019-05-19T23:21:16.800Z,16.98
2019-05-19T23:23:46.874Z,16.90
2019-05-19T23:26:16.943Z,16.83
2019-05-19T23:28:47.051Z,16.81
2019-05-19T23:31:17.242Z,16.82
2019-05-19T23:33:47.375Z,16.85
2019-05-19T23:36:17.419Z,16.86
2019-05-19T23:38:47.459Z,16.87
2019-05-19T23:41:17.509Z,16.87
2019-05-19T23:43:47.546Z,16.90
2019-05-19T23:46:17.690Z,16.92
2019-05-19T23:48:47.749Z,16.89
2019-05-19T23:51:17.785Z,16.82
2019-05-19T23:53:47.848Z,16.81
2019-05-19T23:56:17.897Z,16.81
2019-05-19T23:58:47.945Z,16.84
